createdAt,value
2023-02-02T00:01:21.548Z,11.63
2023-02-02T00:03:50.713Z,14.97
2023-02-02T00:06:20.514Z,12.17
2023-02-02T00:08:48.471Z,14.33
2023-02-02T00:11:16.585Z,14.97
2023-02-02T00:13:44.544Z,14.00
2023-02-02T00:16:38.816Z,11.63
2023-02-02T00:19:08.709Z,7.40
2023-02-02T00:21:38.935Z,14.03
2023-02-02T00:24:08.005Z,15.73
2023-02-02T00:26:36.663Z,12.17
2023-02-02T00:29:06.531Z,11.33
2023-02-02T00:31:34.746Z,10.03
2023-02-02T00:34:02.489Z,12.13
2023-02-02T00:36:30.138Z,17.87
2023-02-02T00:38:59.220Z,19.43
2023-02-02T00:41:26.861Z,17.73
2023-02-02T00:44:08.545Z,15.47
2023-02-02T00:46:39.829Z,18.37
2023-02-02T00:49:07.517Z,14.40
2023-02-02T00:51:36.428Z,13.97
2023-02-02T00:54:06.849Z,16.03
2023-02-02T00:56:34.664Z,12.97
2023-02-02T00:59:02.352Z,12.83
2023-02-02T01:01:30.410Z,13.73
2023-02-02T01:03:58.952Z,19.97
2023-02-02T01:06:26.594Z,16.73
2023-02-02T01:08:54.419Z,14.20
2023-02-02T01:11:23.594Z,19.70
2023-02-02T01:13:51.258Z,13.90
2023-02-02T01:16:19.140Z,17.90
2023-02-02T01:18:46.888Z,13.90
2023-02-02T01:21:14.839Z,12.67
2023-02-02T01:23:42.517Z,12.30
2023-02-02T01:26:12.451Z,14.73
2023-02-02T01:28:41.913Z,14.00
2023-02-02T01:31:11.157Z,12.33
2023-02-02T01:33:39.524Z,13.37
2023-02-02T01:36:09.924Z,15.67
2023-02-02T01:38:37.700Z,15.87
2023-02-02T01:41:05.642Z,17.60
2023-02-02T01:43:54.939Z,12.23
2023-02-02T01:46:24.656Z,14.57
2023-02-02T01:48:56.180Z,10.73
2023-02-02T01:51:29.610Z,10.37
2023-02-02T01:54:00.380Z,16.47
2023-02-02T01:56:31.695Z,18.87
2023-02-02T01:59:01.715Z,11.87
2023-02-02T02:01:29.552Z,12.27
2023-02-02T02:03:57.919Z,9.17
2023-02-02T02:06:27.746Z,14.60
2023-02-02T02:09:00.298Z,18.83
2023-02-02T02:11:28.423Z,13.03
2023-02-02T02:14:15.823Z,11.33
2023-02-02T02:16:55.613Z,17.43
2023-02-02T02:20:09.773Z,14.70
2023-02-02T02:23:24.221Z,11.77
2023-02-02T02:26:32.674Z,12.67
2023-02-02T02:29:30.281Z,17.00
2023-02-02T02:32:10.286Z,13.10
2023-02-02T02:34:52.730Z,10.93
2023-02-02T02:37:31.889Z,14.50
2023-02-02T02:40:05.141Z,13.57
2023-02-02T02:42:39.569Z,15.03
2023-02-02T02:45:10.889Z,18.00
2023-02-02T02:47:41.361Z,17.80
2023-02-02T02:50:10.472Z,10.83
2023-02-02T02:52:39.460Z,15.30
2023-02-02T02:55:10.304Z,13.43
2023-02-02T02:57:51.150Z,16.13
2023-02-02T03:00:40.435Z,16.63
2023-02-02T03:03:18.186Z,14.00
2023-02-02T03:05:54.628Z,20.27
2023-02-02T03:08:28.453Z,12.60
2023-02-02T03:10:57.314Z,10.70
2023-02-02T03:13:26.626Z,15.43
2023-02-02T03:15:54.777Z,13.07
2023-02-02T03:18:28.313Z,13.27
2023-02-02T03:20:56.522Z,11.73
2023-02-02T03:23:24.109Z,14.03
2023-02-02T03:25:52.007Z,14.87
2023-02-02T03:28:20.477Z,13.50
2023-02-02T03:30:49.298Z,13.43
2023-02-02T03:33:18.574Z,15.03
2023-02-02T03:35:47.744Z,15.57
2023-02-02T03:38:15.358Z,15.13
2023-02-02T03:40:42.962Z,13.87
2023-02-02T03:43:10.655Z,12.27
2023-02-02T03:45:40.731Z,12.17
2023-02-02T03:48:08.540Z,13.93
2023-02-02T03:50:36.210Z,13.37
2023-02-02T03:53:05.713Z,13.70
2023-02-02T03:55:33.314Z,13.43
2023-02-02T03:58:00.881Z,14.70
2023-02-02T04:00:28.487Z,8.57
2023-02-02T04:02:56.171Z,11.00
2023-02-02T04:05:24.127Z,12.50
2023-02-02T04:07:51.946Z,15.43
2023-02-02T04:10:21.133Z,21.60
2023-02-02T04:12:48.797Z,15.27
2023-02-02T04:15:16.820Z,14.20
2023-02-02T04:17:44.563Z,13.03
2023-02-02T04:20:13.073Z,10.90
2023-02-02T04:22:40.679Z,11.30
2023-02-02T04:25:08.988Z,15.30
2023-02-02T04:27:37.977Z,16.40
2023-02-02T04:30:06.840Z,14.00
2023-02-02T04:32:34.442Z,11.20
2023-02-02T04:35:02.096Z,14.13
2023-02-02T04:37:32.126Z,10.00
2023-02-02T04:39:59.731Z,13.17
2023-02-02T04:42:27.338Z,16.63
2023-02-02T04:44:56.282Z,14.17
2023-02-02T04:47:23.871Z,13.47
2023-02-02T04:49:51.459Z,16.07
2023-02-02T04:52:19.042Z,14.73
2023-02-02T04:54:46.651Z,12.37
2023-02-02T04:57:14.228Z,13.47
2023-02-02T04:59:42.564Z,14.30
2023-02-02T05:02:11.582Z,11.17
2023-02-02T05:04:39.266Z,19.47
2023-02-02T05:07:06.986Z,9.57
2023-02-02T05:09:34.680Z,17.80
2023-02-02T05:12:02.261Z,13.00
2023-02-02T05:14:29.860Z,14.90
2023-02-02T05:16:57.467Z,16.13
2023-02-02T05:19:26.531Z,10.73
2023-02-02T05:21:54.732Z,15.87
2023-02-02T05:24:22.354Z,11.10
2023-02-02T05:26:49.959Z,19.80
2023-02-02T05:29:17.552Z,12.30
2023-02-02T05:31:45.166Z,12.13
2023-02-02T05:34:13.497Z,17.13
2023-02-02T05:36:42.552Z,14.37
2023-02-02T05:39:10.539Z,18.03
2023-02-02T05:41:38.160Z,13.03
2023-02-02T05:44:05.966Z,17.27
2023-02-02T05:46:33.831Z,16.87
2023-02-02T05:49:04.899Z,12.37
2023-02-02T05:51:35.039Z,15.43
2023-02-02T05:54:04.078Z,19.50
2023-02-02T05:56:31.719Z,10.27
2023-02-02T05:59:00.137Z,8.87
2023-02-02T06:01:28.105Z,11.77
2023-02-02T06:03:55.791Z,11.67
2023-02-02T06:06:23.592Z,10.50
2023-02-02T06:08:51.170Z,11.67
2023-02-02T06:11:20.249Z,13.97
2023-02-02T06:13:47.818Z,11.97
2023-02-02T06:16:16.126Z,16.30
2023-02-02T06:18:43.725Z,15.33
2023-02-02T06:21:12.159Z,14.77
2023-02-02T06:23:45.494Z,12.53
2023-02-02T06:26:13.325Z,13.67
2023-02-02T06:28:42.348Z,14.43
2023-02-02T06:31:12.360Z,14.97
2023-02-02T06:33:40.218Z,13.40
2023-02-02T06:36:08.782Z,10.87
2023-02-02T06:38:36.411Z,8.30
2023-02-02T06:41:04.701Z,10.97
2023-02-02T06:43:32.345Z,9.30
2023-02-02T06:46:01.443Z,14.73
2023-02-02T06:48:29.057Z,18.67
2023-02-02T06:50:59.134Z,13.97
2023-02-02T06:53:26.825Z,12.37
2023-02-02T06:55:55.399Z,15.03
2023-02-02T06:58:23.187Z,11.93
2023-02-02T07:00:51.011Z,12.30
2023-02-02T07:03:21.364Z,13.40
2023-02-02T07:05:49.194Z,9.90
2023-02-02T07:08:16.977Z,16.90
2023-02-02T07:11:10.923Z,18.23
2023-02-02T07:13:32.607Z,14.77
2023-02-02T07:16:00.377Z,10.00
2023-02-02T07:18:29.479Z,8.67
2023-02-02T07:20:59.642Z,17.13
2023-02-02T07:23:27.360Z,12.87
2023-02-02T07:26:02.643Z,21.10
2023-02-02T07:28:30.449Z,16.90
2023-02-02T07:30:58.255Z,16.17
2023-02-02T07:33:26.299Z,15.90
2023-02-02T07:35:55.276Z,13.10
2023-02-02T07:38:22.915Z,15.87
2023-02-02T07:40:50.592Z,16.27
2023-02-02T07:43:19.420Z,15.87
2023-02-02T07:45:47.080Z,15.63
2023-02-02T07:48:14.699Z,10.00
2023-02-02T07:50:42.281Z,22.63
2023-02-02T07:53:11.209Z,12.10
2023-02-02T07:55:38.805Z,16.47
2023-02-02T07:58:07.799Z,16.10
2023-02-02T08:00:35.864Z,12.47
2023-02-02T08:03:03.579Z,16.47
2023-02-02T08:05:32.100Z,13.20
2023-02-02T08:07:59.689Z,15.50
2023-02-02T08:10:28.661Z,11.17
2023-02-02T08:12:56.278Z,13.90
2023-02-02T08:15:24.009Z,15.53
2023-02-02T08:17:51.997Z,12.63
2023-02-02T08:20:20.627Z,14.87
2023-02-02T08:22:48.244Z,12.10
2023-02-02T08:25:16.003Z,15.07
2023-02-02T08:27:44.949Z,19.07
2023-02-02T08:30:13.725Z,12.13
2023-02-02T08:32:41.409Z,13.27
2023-02-02T08:35:09.471Z,12.17
2023-02-02T08:37:37.084Z,15.53
2023-02-02T08:40:05.325Z,14.23
2023-02-02T08:42:32.984Z,16.73
2023-02-02T08:46:03.134Z,10.30
2023-02-02T08:47:58.869Z,13.37
2023-02-02T08:50:33.057Z,13.40
2023-02-02T08:53:00.673Z,19.87
2023-02-02T08:55:28.279Z,15.73
2023-02-02T08:57:55.909Z,15.63
2023-02-02T09:00:25.138Z,14.73
2023-02-02T09:02:52.761Z,14.37
2023-02-02T09:05:20.345Z,14.63
2023-02-02T09:07:49.308Z,19.57
2023-02-02T09:10:17.700Z,16.17
2023-02-02T09:12:45.293Z,15.00
2023-02-02T09:15:13.597Z,19.57
2023-02-02T09:17:42.542Z,20.10
2023-02-02T09:20:11.280Z,12.33
2023-02-02T09:22:38.866Z,18.57
2023-02-02T09:25:07.258Z,13.43
2023-02-02T09:27:38.481Z,14.13
2023-02-02T09:30:06.796Z,12.77
2023-02-02T09:32:34.444Z,16.40
2023-02-02T09:35:03.358Z,12.13
2023-02-02T09:37:31.359Z,21.27
2023-02-02T09:39:58.967Z,11.40
2023-02-02T09:42:41.396Z,16.43
2023-02-02T09:45:17.590Z,15.30
2023-02-02T09:47:55.561Z,12.13
2023-02-02T09:50:41.105Z,16.53
2023-02-02T09:53:15.859Z,14.27
2023-02-02T09:55:46.137Z,17.20
2023-02-02T09:58:19.934Z,15.67
2023-02-02T10:00:55.119Z,12.87
2023-02-02T10:03:28.341Z,16.40
2023-02-02T10:06:04.979Z,11.13
2023-02-02T10:08:37.423Z,15.07
2023-02-02T10:11:28.538Z,16.57
2023-02-02T10:14:01.121Z,15.70
2023-02-02T10:16:30.144Z,14.87
2023-02-02T10:19:02.314Z,11.30
2023-02-02T10:21:40.324Z,12.53
2023-02-02T10:24:18.713Z,6.67
2023-02-02T10:26:49.814Z,15.30
2023-02-02T10:29:19.731Z,12.80
2023-02-02T10:32:02.533Z,12.53
2023-02-02T10:34:38.747Z,12.37
2023-02-02T10:37:27.912Z,15.67
2023-02-02T10:40:14.953Z,7.93
2023-02-02T10:43:10.732Z,13.10
2023-02-02T10:45:41.628Z,10.43
2023-02-02T10:48:16.160Z,11.60
2023-02-02T10:50:47.312Z,11.30
2023-02-02T10:53:17.740Z,11.23
2023-02-02T10:55:53.868Z,9.57
2023-02-02T10:58:27.437Z,9.93
2023-02-02T11:00:58.115Z,7.80
2023-02-02T11:03:29.189Z,10.80
2023-02-02T11:06:16.871Z,7.97
2023-02-02T11:08:48.154Z,11.07
2023-02-02T11:11:20.843Z,12.10
2023-02-02T11:13:54.252Z,12.27
2023-02-02T11:16:32.622Z,10.13
2023-02-02T11:19:23.960Z,6.17
2023-02-02T11:21:54.702Z,10.40
2023-02-02T11:24:28.011Z,14.27
2023-02-02T11:26:58.512Z,8.40
2023-02-02T11:29:30.619Z,9.97
2023-02-02T11:31:58.587Z,14.67
2023-02-02T11:34:28.407Z,8.93
2023-02-02T11:37:02.835Z,10.57
2023-02-02T11:39:32.190Z,12.20
2023-02-02T11:42:02.819Z,8.70
2023-02-02T11:44:34.170Z,8.40
2023-02-02T11:47:04.477Z,10.73
2023-02-02T11:49:43.657Z,8.43
2023-02-02T11:52:18.913Z,9.17
2023-02-02T11:54:51.033Z,10.77
2023-02-02T11:57:21.584Z,6.97
2023-02-02T11:59:51.434Z,8.97
2023-02-02T12:02:25.872Z,8.50
2023-02-02T12:04:55.176Z,7.30
2023-02-02T12:07:27.608Z,6.50
2023-02-02T12:10:01.693Z,6.73
2023-02-02T12:12:41.849Z,6.10
2023-02-02T12:15:25.812Z,9.33
2023-02-02T12:17:59.621Z,9.77
2023-02-02T12:20:36.806Z,10.57
2023-02-02T12:23:32.839Z,14.27
2023-02-02T12:26:28.585Z,7.27
2023-02-02T12:29:16.205Z,5.30
2023-02-02T12:32:14.950Z,6.57
2023-02-02T12:34:57.543Z,8.80
2023-02-02T12:37:42.455Z,7.33
2023-02-02T12:40:28.061Z,8.13
2023-02-02T12:43:07.866Z,7.10
2023-02-02T12:45:52.703Z,8.57
2023-02-02T12:48:36.386Z,5.23
2023-02-02T12:51:19.678Z,8.00
2023-02-02T12:54:34.546Z,9.17
2023-02-02T12:57:13.955Z,8.53
2023-02-02T12:59:58.693Z,7.63
2023-02-02T13:02:34.674Z,6.30
2023-02-02T13:05:21.250Z,5.67
2023-02-02T13:07:56.167Z,6.90
2023-02-02T13:10:30.532Z,6.37
2023-02-02T13:13:02.260Z,6.70
2023-02-02T13:15:36.652Z,5.93
2023-02-02T13:18:08.228Z,4.60
2023-02-02T13:20:40.661Z,3.93
2023-02-02T13:23:12.103Z,7.87
2023-02-02T13:25:48.136Z,6.03
2023-02-02T13:28:26.722Z,5.33
2023-02-02T13:31:00.076Z,5.93
2023-02-02T13:33:33.190Z,8.37
2023-02-02T13:36:03.604Z,4.40
2023-02-02T13:38:34.194Z,4.57
2023-02-02T13:41:07.589Z,6.73
2023-02-02T13:43:44.712Z,7.47
2023-02-02T13:46:24.905Z,5.03
2023-02-02T13:49:01.588Z,4.67
2023-02-02T13:51:56.426Z,6.73
2023-02-02T13:55:13.254Z,7.87
2023-02-02T13:58:07.000Z,4.27
2023-02-02T14:00:37.571Z,7.37
2023-02-02T14:03:21.666Z,4.77
2023-02-02T14:06:04.773Z,4.47
2023-02-02T14:08:33.074Z,5.03
2023-02-02T14:11:02.689Z,5.77
2023-02-02T14:13:53.867Z,8.97
2023-02-02T14:16:24.908Z,8.33
2023-02-02T14:18:55.752Z,8.13
2023-02-02T14:22:02.071Z,8.53
2023-02-02T14:24:50.525Z,5.93
2023-02-02T14:27:41.393Z,6.17
2023-02-02T14:30:23.401Z,6.47
2023-02-02T14:32:51.247Z,8.27
2023-02-02T14:35:59.273Z,6.43
2023-02-02T14:38:49.195Z,3.37
2023-02-02T14:41:43.199Z,5.43
2023-02-02T14:44:10.239Z,3.40
2023-02-02T14:46:40.044Z,4.30
2023-02-02T14:49:13.367Z,3.47
2023-02-02T14:51:56.500Z,4.10
2023-02-02T14:54:28.706Z,1.80
2023-02-02T14:57:00.151Z,2.33
2023-02-02T14:59:34.003Z,2.53
2023-02-02T15:02:09.804Z,3.70
2023-02-02T15:04:37.504Z,5.17
2023-02-02T15:07:39.357Z,2.93
2023-02-02T15:10:13.572Z,2.60
2023-02-02T15:12:44.325Z,2.97
2023-02-02T15:15:20.108Z,4.60
2023-02-02T15:18:08.619Z,2.50
2023-02-02T15:20:42.963Z,3.43
2023-02-02T15:23:25.499Z,3.80
2023-02-02T15:25:57.790Z,2.80
2023-02-02T15:28:34.006Z,4.70
2023-02-02T15:31:07.055Z,3.97
2023-02-02T15:33:39.664Z,4.43
2023-02-02T15:36:13.659Z,4.87
2023-02-02T15:38:44.299Z,5.07
2023-02-02T15:41:20.235Z,2.97
2023-02-02T15:43:48.358Z,3.00
2023-02-02T15:46:24.235Z,3.93
2023-02-02T15:49:35.215Z,3.60
2023-02-02T15:52:13.560Z,8.47
2023-02-02T15:54:50.894Z,4.33
2023-02-02T15:57:29.570Z,5.00
2023-02-02T15:59:57.424Z,2.53
2023-02-02T16:02:35.094Z,2.80
2023-02-02T16:05:02.846Z,3.43
2023-02-02T16:07:33.834Z,4.37
2023-02-02T16:10:08.907Z,2.20
2023-02-02T16:12:36.775Z,2.13
2023-02-02T16:15:05.365Z,3.43
2023-02-02T16:17:35.503Z,2.47
2023-02-02T16:20:08.498Z,3.03
2023-02-02T16:22:37.481Z,2.03
2023-02-02T16:25:11.060Z,2.73
2023-02-02T16:27:39.079Z,3.40
2023-02-02T16:30:08.992Z,3.97
2023-02-02T16:32:38.980Z,3.07
2023-02-02T16:35:25.921Z,3.30
2023-02-02T16:37:53.844Z,2.67
2023-02-02T16:40:28.352Z,3.80
2023-02-02T16:43:05.938Z,4.30
2023-02-02T16:45:35.805Z,3.57
2023-02-02T16:48:27.008Z,8.00
2023-02-02T16:51:07.258Z,6.40
2023-02-02T16:53:36.007Z,5.37
2023-02-02T16:56:06.414Z,4.00
2023-02-02T16:58:39.808Z,4.97
2023-02-02T17:01:16.635Z,6.37
2023-02-02T17:03:51.702Z,4.93
2023-02-02T17:06:35.705Z,2.90
2023-02-02T17:09:35.359Z,2.97
2023-02-02T17:12:14.258Z,5.57
2023-02-02T17:14:53.171Z,4.40
2023-02-02T17:17:21.845Z,5.97
2023-02-02T17:19:49.658Z,6.47
2023-02-02T17:22:19.578Z,6.00
2023-02-02T17:24:48.970Z,6.10
2023-02-02T17:27:23.348Z,4.87
2023-02-02T17:29:51.012Z,5.63
2023-02-02T17:32:18.657Z,4.00
2023-02-02T17:34:46.316Z,3.03
2023-02-02T17:37:13.970Z,2.90
2023-02-02T17:39:41.637Z,3.70
2023-02-02T17:42:25.306Z,2.43
2023-02-02T17:44:53.232Z,3.60
2023-02-02T17:47:21.470Z,2.90
2023-02-02T17:49:49.102Z,2.90
2023-02-02T17:52:16.716Z,2.00
2023-02-02T17:54:44.453Z,3.20
2023-02-02T17:57:12.030Z,3.60
2023-02-02T17:59:41.153Z,3.90
2023-02-02T18:02:12.993Z,2.00
2023-02-02T18:04:40.693Z,2.50
2023-02-02T18:07:09.098Z,2.93
2023-02-02T18:09:36.713Z,2.63
2023-02-02T18:12:04.478Z,1.77
2023-02-02T18:14:32.081Z,2.27
2023-02-02T18:17:01.079Z,2.63
2023-02-02T18:19:28.826Z,3.67
2023-02-02T18:21:56.406Z,1.70
2023-02-02T18:24:24.050Z,4.03
2023-02-02T18:26:51.705Z,3.00
2023-02-02T18:29:19.320Z,2.00
2023-02-02T18:31:47.006Z,2.10
2023-02-02T18:34:15.991Z,3.80
2023-02-02T18:36:43.590Z,1.43
2023-02-02T18:39:11.192Z,2.40
2023-02-02T18:41:38.782Z,2.90
2023-02-02T18:44:06.411Z,2.90
2023-02-02T18:46:34.638Z,3.60
2023-02-02T18:49:02.286Z,3.67
2023-02-02T18:51:31.632Z,3.87
2023-02-02T18:54:00.479Z,4.17
2023-02-02T18:56:29.255Z,3.30
2023-02-02T18:58:58.528Z,4.07
2023-02-02T19:01:26.644Z,4.50
2023-02-02T19:03:57.086Z,7.03
2023-02-02T19:06:42.845Z,5.27
2023-02-02T19:09:13.725Z,5.80
2023-02-02T19:11:43.875Z,4.57
2023-02-02T19:14:15.097Z,4.57
2023-02-02T19:16:43.510Z,3.87
2023-02-02T19:19:18.751Z,2.53
2023-02-02T19:21:46.373Z,2.60
2023-02-02T19:24:15.820Z,2.83
2023-02-02T19:26:47.286Z,2.37
2023-02-02T19:29:18.354Z,3.20
2023-02-02T19:31:46.872Z,2.90
2023-02-02T19:34:19.095Z,4.10
2023-02-02T19:36:49.256Z,4.37
2023-02-02T19:39:20.711Z,4.13
2023-02-02T19:41:48.872Z,4.20
2023-02-02T19:44:19.466Z,4.87
2023-02-02T19:46:49.910Z,4.30
2023-02-02T19:49:23.860Z,3.17
2023-02-02T19:51:53.591Z,3.87
2023-02-02T19:54:29.421Z,4.50
2023-02-02T19:56:59.131Z,2.73
2023-02-02T19:59:31.372Z,3.90
2023-02-02T20:02:01.383Z,4.47
2023-02-02T20:04:29.175Z,3.20
2023-02-02T20:06:59.736Z,4.07
2023-02-02T20:09:34.483Z,2.87
2023-02-02T20:12:02.311Z,4.17
2023-02-02T20:14:34.541Z,3.63
2023-02-02T20:17:05.842Z,4.30
2023-02-02T20:19:36.870Z,6.77
2023-02-02T20:22:04.742Z,8.03
2023-02-02T20:24:37.299Z,5.97
2023-02-02T20:27:14.451Z,5.93
2023-02-02T20:29:43.598Z,9.10
2023-02-02T20:32:21.685Z,7.03
2023-02-02T20:34:51.199Z,5.57
2023-02-02T20:37:23.761Z,6.63
2023-02-02T20:39:56.274Z,8.53
2023-02-02T20:42:24.809Z,10.93
2023-02-02T20:44:53.044Z,9.90
2023-02-02T20:47:21.324Z,15.03
2023-02-02T20:49:49.427Z,10.27
2023-02-02T20:52:23.296Z,6.60
2023-02-02T20:54:52.929Z,7.90
2023-02-02T20:57:20.654Z,5.83
2023-02-02T20:59:48.369Z,7.13
2023-02-02T21:02:19.325Z,5.20
2023-02-02T21:04:47.754Z,3.50
2023-02-02T21:07:16.896Z,8.33
2023-02-02T21:09:45.096Z,7.30
2023-02-02T21:12:14.244Z,6.20
2023-02-02T21:14:41.906Z,4.53
2023-02-02T21:17:15.155Z,9.93
2023-02-02T21:19:44.361Z,8.13
2023-02-02T21:22:12.520Z,7.43
2023-02-02T21:24:40.719Z,8.47
2023-02-02T21:27:09.044Z,8.70
2023-02-02T21:29:38.489Z,7.57
2023-02-02T21:32:06.634Z,10.67
2023-02-02T21:34:35.083Z,7.87
2023-02-02T21:37:02.653Z,9.60
2023-02-02T21:39:32.884Z,9.10
2023-02-02T21:42:13.915Z,8.33
2023-02-02T21:44:45.665Z,6.27
2023-02-02T21:47:26.657Z,6.40
2023-02-02T21:49:56.562Z,6.47
2023-02-02T21:52:24.189Z,5.07
2023-02-02T21:54:51.819Z,5.57
2023-02-02T21:57:21.420Z,2.77
2023-02-02T21:59:57.949Z,6.60
2023-02-02T22:02:38.099Z,6.37
2023-02-02T22:05:16.874Z,6.03
2023-02-02T22:07:47.252Z,8.53
2023-02-02T22:10:36.978Z,8.23
2023-02-02T22:13:14.827Z,4.57
2023-02-02T22:15:46.087Z,5.17
2023-02-02T22:18:16.743Z,4.27
2023-02-02T22:20:47.146Z,6.23
2023-02-02T22:23:17.060Z,5.20
2023-02-02T22:25:45.685Z,4.43
2023-02-02T22:28:18.502Z,5.13
2023-02-02T22:30:48.228Z,5.70
2023-02-02T22:33:16.213Z,5.20
2023-02-02T22:35:44.274Z,4.70
2023-02-02T22:38:17.277Z,3.50
2023-02-02T22:40:45.095Z,2.97
2023-02-02T22:43:16.152Z,4.23
2023-02-02T22:45:44.142Z,7.23
2023-02-02T22:48:13.910Z,3.57
2023-02-02T22:50:43.003Z,2.43
2023-02-02T22:53:10.823Z,3.70
2023-02-02T22:55:38.445Z,2.40
2023-02-02T22:58:06.052Z,3.73
2023-02-02T23:00:34.041Z,2.27
2023-02-02T23:03:01.998Z,3.00
2023-02-02T23:05:31.185Z,2.63
2023-02-02T23:07:58.796Z,3.53
2023-02-02T23:10:29.573Z,2.23
2023-02-02T23:12:58.614Z,2.30
2023-02-02T23:15:26.872Z,3.90
2023-02-02T23:17:54.825Z,4.83
2023-02-02T23:20:22.465Z,3.80
2023-02-02T23:22:51.722Z,2.23
2023-02-02T23:25:19.645Z,2.93
2023-02-02T23:27:47.288Z,3.87
2023-02-02T23:30:15.980Z,2.93
2023-02-02T23:32:43.671Z,2.50
2023-02-02T23:35:11.340Z,4.97
2023-02-02T23:37:39.157Z,5.03
2023-02-02T23:40:09.943Z,4.60
2023-02-02T23:42:37.641Z,3.93
2023-02-02T23:45:06.173Z,3.27
2023-02-02T23:47:34.129Z,4.47
2023-02-02T23:50:04.242Z,3.97
2023-02-02T23:52:32.422Z,2.50
2023-02-02T23:55:01.000Z,1.93
2023-02-02T23:57:30.285Z,2.50
2023-02-02T23:59:58.212Z,2.27
